This is the latest recevied weather packets stored in our database for station/object W5HKR. If no packets are shown the sender has not sent any weather packets the latest 10 day(s).
| Time | Temp. | Humidity | Pressure | Rain* | Wind** | Luminosity | Snow |
|---|---|---|---|---|---|---|---|
| 1777250611 | 27.22° C | 78% | 979 hPa | 0 mm | - | - | - |
| 1777250311 | 27.78° C | 78% | 978.7 hPa | 0 mm | - | - | - |
| 1777250081 | 18.33° C | 91% | 990.6 hPa | 0 mm | - | - | - |
| 1777250010 | 27.78° C | 77% | 978.7 hPa | 0 mm | - | - | - |
| 1777249711 | 27.78° C | 76% | 978.7 hPa | 0 mm | - | - | - |
| 1777249410 | 18.33° C | 91% | 990.6 hPa | 0 mm | - | - | - |
| 1777249110 | 18.33° C | 91% | 990.6 hPa | 0 mm | - | - | - |
| 1777249002 | 18.33° C | 91% | 990.6 hPa | 0 mm | - | - | - |
| 1777248511 | 28.33° C | 75% | 978.2 hPa | 0 mm | - | - | - |
| 1777248210 | 18.33° C | 91% | 990.6 hPa | 0 mm | - | - | - |
| 1777247909 | 28.33° C | 74% | 978.3 hPa | 0 mm | - | - | - |
| 1777247609 | 28.89° C | 73% | 978.9 hPa | 0 mm | - | - | - |
| 1777247311 | 18.33° C | 91% | 990.6 hPa | 0 mm | - | - | - |
| 1777247011 | 18.33° C | 91% | 990.6 hPa | 0 mm | - | - | - |
| 1777246842 | 29.44° C | 71% | 978.3 hPa | 0 mm | - | - | - |
| 1777246710 | 18.33° C | 91% | 990.6 hPa | 0 mm | - | - | - |
| 1777246409 | 29.44° C | 70% | 978.4 hPa | 0 mm | - | - | - |
| 1777246109 | 18.33° C | 91% | 990.6 hPa | 0 mm | - | - | - |
| 1777245810 | 18.33° C | 91% | 990.6 hPa | 0 mm | - | - | - |
| 1777245762 | 30° C | 69% | 978.3 hPa | 0 mm | - | - | - |
| 1777245511 | 18.33° C | 91% | 990.6 hPa | 0 mm | - | - | - |
| 1777245210 | 18.33° C | 91% | 990.6 hPa | 0 mm | - | - | - |
| 1777244909 | 30.56° C | 65% | 978.3 hPa | 0 mm | - | - | - |
| 1777244681 | 18.33° C | 91% | 990.6 hPa | 0 mm | - | - | - |
| 1777244312 | 18.33° C | 91% | 990.6 hPa | 0 mm | - | - | - |
* Rain latest hour (hover to see other rain measurements)
** Current wind speed in m/s (hover to see current wind gust speed)